Estación Meteorológica Peña el Pijo (Robertgarden) [ 07/19/24 13:33:15 CEST ]

Fecha Hora Presion(HPa) Temp (°C) Humedad % Rocio (°C) Viento ( m/s) Direccion Lluvia 1Hora(mm) Lluvia 24H(mm) LLuvia Total(mm)
2012-Jan-05 01:01:18 1023.500 -0.2 77 -3.7         151.25
2012-Jan-05 02:04:12 1023.000 -0.6 78 -4.0         151.25
2012-Jan-05 03:01:47 1022.500 -0.1 79 -3.3         151.25
2012-Jan-05 04:01:41 1022.100 0.7 77 -2.9         151.25
2012-Jan-05 05:01:45 1021.600 1.1 76 -2.7         151.25
2012-Jan-05 06:01:44 1021.300 1.3 75 -2.7         151.25
2012-Jan-05 07:01:13 1021.700 2.2 68 -3.1         151.25
2012-Jan-05 08:01:18 1021.700 1.3 67 -4.2         151.25
2012-Jan-05 09:01:15 1022.100 0.4 68 -4.8         151.25
2012-Jan-05 10:01:15 1022.100 5.6 57 -2.3         151.25
2012-Jan-05 11:01:13 1022.400 12.2 38 -1.8         151.25
2012-Jan-05 12:01:15 1021.400 15.8 30 -1.8         151.25
2012-Jan-05 13:01:11 1020.100 20.1 18 -5.3         151.25
2012-Jan-05 14:01:17 1019.300 21.2 18 -4.4 3.1 SSE     151.25
2012-Jan-05 15:01:18 1018.900 20.9 17 -5.6 0.5 SSW     151.25
2012-Jan-05 16:01:14 1018.700 20.4 16 -6.9         151.25
2012-Jan-05 17:01:11 1018.800 16.5 19 -7.4         151.25
2012-Jan-05 18:01:14 1019.000 13.5 22 -8.0         151.25
2012-Jan-05 19:01:17 1019.100 8.7 31 -7.5         151.25
2012-Jan-05 20:01:15 1019.500 6.3 37 -7.4         151.25
2012-Jan-05 21:01:11 1019.300 4.3 42 -7.5         151.25
2012-Jan-05 22:01:14 1019.300 4.6 41 -7.6         151.25
2012-Jan-05 23:01:18 1019.000 3.9 45 -7.0         151.25

Temperatura Máxima:21°    Temperatura Mínima:
Presión Máxima:1023.500 Hpa    Presión Mínima:1018.700 Hpa


Volver